Time;durP1;ratioP1;P1;durP2;ratioP2;P2;SDS_P1;SDS_P2;PMS_P1;PMS_P2;Temp;Humidity;BMP_temperature;BMP_pressure;BME280_temperature;BME280_humidity;BME280_pressure;Samples;Min_cycle;Max_cycle;Signal;HPM_P1;HPM_P2
2023/10/16 00:00:29;;;;;;;7.37;3.40;;;5.10;99.90;;;;;;4430759;28;656810;-64
2023/10/16 00:03:14;;;;;;;10.13;2.53;;;5.10;99.90;;;;;;4413716;28;655719;-64
2023/10/16 00:06:06;;;;;;;9.73;3.73;;;5.10;99.90;;;;;;4431429;28;656822;-64
2023/10/16 00:08:59;;;;;;;8.80;2.97;;;5.00;99.90;;;;;;4381201;28;656644;-64
2023/10/16 00:11:47;;;;;;;11.27;4.40;;;5.00;99.90;;;;;;4405112;28;655792;-64
2023/10/16 00:14:35;;;;;;;4.97;2.92;;;5.00;99.90;;;;;;4406382;28;657146;-64
2023/10/16 00:17:24;;;;;;;9.37;3.47;;;5.00;99.90;;;;;;4418571;28;655913;-64
2023/10/16 00:20:24;;;;;;;10.00;3.27;;;5.00;99.90;;;;;;4429090;28;656798;-65
2023/10/16 00:23:11;;;;;;;11.90;4.80;;;4.90;99.90;;;;;;4404173;28;657219;-63
2023/10/16 00:25:59;;;;;;;13.00;3.53;;;4.80;99.90;;;;;;4406512;28;656710;-63
2023/10/16 00:28:46;;;;;;;9.43;3.93;;;4.70;99.90;;;;;;4424158;28;657474;-63
2023/10/16 00:31:37;;;;;;;7.43;2.63;;;4.60;99.90;;;;;;4406750;28;655234;-63
2023/10/16 00:34:26;;;;;;;7.20;4.20;;;4.60;99.90;;;;;;4408365;28;656859;-64
2023/10/16 00:37:13;;;;;;;10.33;4.10;;;4.60;99.90;;;;;;4410799;28;655623;-64
2023/10/16 00:40:07;;;;;;;7.83;3.50;;;4.50;99.90;;;;;;4428355;28;657053;-64
2023/10/16 00:42:58;;;;;;;12.03;3.50;;;4.50;99.90;;;;;;4385198;28;655825;-64
2023/10/16 00:45:48;;;;;;;7.78;2.78;;;4.60;99.90;;;;;;4429653;28;657392;-64
2023/10/16 00:48:36;;;;;;;9.13;3.20;;;4.60;99.90;;;;;;4401448;28;656127;-64
2023/10/16 00:51:24;;;;;;;8.30;3.50;;;4.60;99.90;;;;;;4409247;28;655860;-64
2023/10/16 00:54:18;;;;;;;9.73;3.57;;;4.70;99.90;;;;;;4424847;28;655482;-64
2023/10/16 00:57:07;;;;;;;7.87;3.10;;;4.70;99.90;;;;;;4404381;28;655843;-64
2023/10/16 00:59:54;;;;;;;2.43;1.43;;;4.80;99.90;;;;;;4402318;28;656788;-64
2023/10/16 01:02:42;;;;;;;7.20;3.17;;;4.70;99.90;;;;;;4427802;28;656194;-64
2023/10/16 01:05:29;;;;;;;9.37;2.80;;;4.70;99.90;;;;;;4410996;28;655818;-64
2023/10/16 01:08:18;;;;;;;6.67;2.13;;;4.70;99.90;;;;;;4420745;28;655607;-64
2023/10/16 01:11:09;;;;;;;8.80;2.90;;;4.70;99.90;;;;;;4396957;28;656883;-64
2023/10/16 01:13:56;;;;;;;5.10;2.53;;;4.70;99.90;;;;;;4398187;28;655621;-64
2023/10/16 01:16:44;;;;;;;6.23;2.23;;;4.70;99.90;;;;;;4407414;28;655955;-64
2023/10/16 01:19:32;;;;;;;6.60;2.50;;;4.80;99.90;;;;;;4419034;28;656592;-64
2023/10/16 01:22:22;;;;;;;10.30;2.60;;;4.90;99.90;;;;;;4406877;28;656317;-64
2023/10/16 01:25:11;;;;;;;7.40;1.67;;;4.90;99.90;;;;;;4398073;28;657029;-64
2023/10/16 01:27:59;;;;;;;4.53;2.37;;;4.90;99.90;;;;;;4399481;28;655378;-64
2023/10/16 01:30:47;;;;;;;3.97;1.87;;;4.90;99.90;;;;;;4424808;28;655747;-64
2023/10/16 01:33:34;;;;;;;7.17;2.23;;;4.80;99.90;;;;;;4393913;28;655798;-64
2023/10/16 01:36:23;;;;;;;4.43;2.07;;;4.90;99.90;;;;;;4421697;28;655901;-64
2023/10/16 01:39:47;;;;;;;3.67;2.30;;;4.90;99.90;;;;;;4398750;28;656541;-64
2023/10/16 01:42:19;;;;;;;4.57;1.90;;;4.90;99.90;;;;;;4378100;28;656073;-64
2023/10/16 01:45:08;;;;;;;4.53;1.77;;;4.90;99.90;;;;;;4417581;28;655676;-64
2023/10/16 01:47:55;;;;;;;5.10;2.10;;;4.90;99.90;;;;;;4397771;28;656330;-64
2023/10/16 01:50:43;;;;;;;2.87;1.43;;;5.00;99.90;;;;;;4403711;28;656427;-64
2023/10/16 01:53:36;;;;;;;5.93;2.17;;;5.00;99.90;;;;;;4425705;28;655718;-64
2023/10/16 01:56:23;;;;;;;4.90;1.70;;;5.10;99.90;;;;;;4405074;28;655272;-64
2023/10/16 01:59:12;;;;;;;3.35;1.65;;;5.10;99.90;;;;;;4417577;28;656403;-64
2023/10/16 02:01:59;;;;;;;5.00;1.50;;;5.00;99.90;;;;;;4398625;28;656626;-64
2023/10/16 02:04:47;;;;;;;4.03;1.57;;;5.00;99.90;;;;;;4419090;28;656271;-64
2023/10/16 02:07:37;;;;;;;3.60;1.43;;;5.00;99.90;;;;;;4400664;28;656782;-64
2023/10/16 02:10:25;;;;;;;5.90;2.53;;;5.10;99.90;;;;;;4398086;28;656659;-64
2023/10/16 02:13:13;;;;;;;7.10;2.60;;;5.10;99.90;;;;;;4418697;28;656500;-64
2023/10/16 02:16:02;;;;;;;9.50;2.67;;;5.00;99.90;;;;;;4425692;28;656304;-64
2023/10/16 02:18:49;;;;;;;5.63;2.37;;;5.10;99.90;;;;;;4401774;28;656010;-64
2023/10/16 02:21:40;;;;;;;5.80;2.20;;;5.10;99.90;;;;;;4418794;28;656386;-64
2023/10/16 02:24:27;;;;;;;3.87;2.00;;;5.10;99.90;;;;;;4384759;28;656123;-64
2023/10/16 02:27:18;;;;;;;6.80;2.00;;;5.20;99.90;;;;;;4421518;28;655775;-64
2023/10/16 02:30:28;;;;;;;5.40;2.17;;;5.10;99.90;;;;;;4399808;28;656626;-64
2023/10/16 02:33:23;;;;;;;6.10;2.40;;;5.10;99.90;;;;;;4403879;28;656170;-64
2023/10/16 02:36:10;;;;;;;11.87;2.17;;;5.10;99.90;;;;;;4405057;28;655632;-64
2023/10/16 02:38:57;;;;;;;9.70;2.83;;;5.00;99.90;;;;;;4418585;28;656529;-64
2023/10/16 02:41:45;;;;;;;5.87;2.50;;;5.00;99.90;;;;;;4430854;28;656107;-64
2023/10/16 02:44:38;;;;;;;7.60;2.57;;;5.00;99.90;;;;;;4425175;28;655910;-65
2023/10/16 02:47:26;;;;;;;4.60;1.87;;;5.00;99.90;;;;;;4405495;28;656910;-64
2023/10/16 02:50:15;;;;;;;6.27;1.63;;;5.10;99.90;;;;;;4410700;28;656625;-64
2023/10/16 02:53:06;;;;;;;8.50;2.35;;;5.00;99.90;;;;;;4412915;28;655730;-65
2023/10/16 02:55:54;;;;;;;5.10;2.07;;;5.00;99.90;;;;;;4405271;28;655390;-64
2023/10/16 02:58:43;;;;;;;5.00;2.00;;;5.00;99.90;;;;;;4431888;28;656383;-64
2023/10/16 03:01:30;;;;;;;12.20;1.90;;;5.00;99.90;;;;;;4409412;28;656848;-64
2023/10/16 03:04:18;;;;;;;5.63;1.90;;;5.00;99.90;;;;;;4420624;28;657361;-64
2023/10/16 03:07:08;;;;;;;8.43;1.90;;;5.10;99.90;;;;;;4434054;28;655519;-64
2023/10/16 03:09:56;;;;;;;9.13;1.83;;;5.10;99.90;;;;;;4403790;28;656115;-64
2023/10/16 03:12:43;;;;;;;4.60;1.37;;;5.00;99.90;;;;;;4407663;28;655782;-63
2023/10/16 03:15:34;;;;;;;3.20;1.40;;;5.10;99.90;;;;;;4433834;28;656166;-63
2023/10/16 03:18:22;;;;;;;7.00;1.70;;;5.10;99.90;;;;;;4405233;28;655785;-64
2023/10/16 03:21:26;;;;;;;9.10;2.37;;;5.10;99.90;;;;;;4407660;28;656605;-64
2023/10/16 03:24:19;;;;;;;5.57;1.80;;;5.00;99.90;;;;;;4396738;28;656792;-63
2023/10/16 03:27:08;;;;;;;9.27;2.10;;;5.10;99.90;;;;;;4418435;28;655590;-64
2023/10/16 03:29:56;;;;;;;6.73;2.10;;;5.10;99.90;;;;;;4409929;28;656356;-64
2023/10/16 03:32:43;;;;;;;4.83;1.70;;;5.00;99.90;;;;;;4413769;28;655337;-64
2023/10/16 03:35:31;;;;;;;8.00;1.67;;;5.10;99.90;;;;;;4436945;28;655721;-64
2023/10/16 03:38:24;;;;;;;5.00;1.80;;;5.10;99.90;;;;;;4417481;28;655490;-64
2023/10/16 03:41:27;;;;;;;5.27;1.90;;;5.20;99.90;;;;;;4414517;28;655640;-64
2023/10/16 03:44:17;;;;;;;4.83;1.70;;;5.20;99.90;;;;;;4393392;28;657750;-64
2023/10/16 03:47:05;;;;;;;4.40;1.87;;;5.20;99.90;;;;;;4419083;28;656208;-64
2023/10/16 03:49:53;;;;;;;3.97;1.03;;;5.30;99.90;;;;;;4424495;28;655594;-64
2023/10/16 03:52:40;;;;;;;7.20;2.03;;;5.30;99.90;;;;;;4435967;28;656891;-64
2023/10/16 03:55:28;;;;;;;5.30;1.70;;;5.30;99.90;;;;;;4429747;28;656692;-64
2023/10/16 03:58:17;;;;;;;4.73;1.93;;;5.30;99.90;;;;;;4436508;28;656477;-63
2023/10/16 04:01:08;;;;;;;9.07;1.93;;;5.30;99.90;;;;;;4418396;28;655362;-63
2023/10/16 04:03:57;;;;;;;10.43;1.80;;;5.30;99.90;;;;;;4409460;28;655991;-64
2023/10/16 04:06:44;;;;;;;6.27;2.07;;;5.30;99.90;;;;;;4408404;28;657412;-64
2023/10/16 04:09:34;;;;;;;6.68;1.63;;;5.30;99.90;;;;;;4428245;28;656054;-64
2023/10/16 04:12:21;;;;;;;7.13;1.73;;;5.40;99.90;;;;;;4420707;28;655523;-64
2023/10/16 04:15:23;;;;;;;3.70;1.70;;;5.40;99.90;;;;;;4419169;28;655442;-64
2023/10/16 04:18:19;;;;;;;6.40;1.53;;;5.40;99.90;;;;;;4410419;28;656086;-64
2023/10/16 04:24:30;;;;;;;3.37;0.87;;;5.50;99.90;;;;;;4414508;28;656408;-63
2023/10/16 04:27:29;;;;;;;4.20;1.48;;;5.40;99.90;;;;;;4419796;28;655522;-64
2023/10/16 04:30:39;;;;;;;7.63;1.70;;;5.40;99.90;;;;;;4413560;28;655964;-64
2023/10/16 04:33:48;;;;;;;5.10;1.30;;;5.30;99.90;;;;;;4413083;28;655613;-64
2023/10/16 04:46:16;;;;;;;9.00;2.20;;;5.30;99.90;;;;;;4396276;28;656877;-64
2023/10/16 04:49:04;;;;;;;3.87;1.30;;;5.40;99.90;;;;;;4418948;28;655738;-64
2023/10/16 04:51:56;;;;;;;5.23;1.50;;;5.30;99.90;;;;;;4441217;28;655583;-64
2023/10/16 04:54:59;;;;;;;1.27;0.80;;;5.40;99.90;;;;;;4410561;28;655915;-64
2023/10/16 04:57:53;;;;;;;4.53;1.80;;;5.40;99.90;;;;;;4404465;28;655868;-64
2023/10/16 05:00:57;;;;;;;3.40;1.73;;;5.40;99.90;;;;;;4421060;28;655386;-63
2023/10/16 05:04:14;;;;;;;2.27;1.43;;;5.40;99.90;;;;;;4413620;28;656310;-64
2023/10/16 05:06:56;;;;;;;5.60;1.90;;;5.30;99.90;;;;;;4397125;28;655866;-65
2023/10/16 05:19:26;;;;;;;2.37;1.30;;;5.40;99.90;;;;;;4408891;28;655521;-64
2023/10/16 06:14:58;;;;;;;7.30;2.00;;;5.40;99.90;;;;;;4385437;28;655973;-64
2023/10/16 06:17:45;;;;;;;4.47;2.07;;;5.50;99.90;;;;;;4429042;28;656713;-63
2023/10/16 06:20:32;;;;;;;6.60;2.20;;;5.50;99.90;;;;;;4410882;28;655384;-63
2023/10/16 06:23:21;;;;;;;7.23;2.03;;;5.50;99.90;;;;;;4433744;28;656441;-64
2023/10/16 06:26:09;;;;;;;4.53;1.63;;;5.50;99.90;;;;;;4408692;28;655368;-63
2023/10/16 06:28:56;;;;;;;6.03;1.80;;;5.50;99.90;;;;;;4418478;28;656351;-64
2023/10/16 06:31:50;;;;;;;6.40;2.43;;;5.50;99.90;;;;;;4408058;28;656757;-63
2023/10/16 06:34:37;;;;;;;6.03;2.40;;;5.50;99.90;;;;;;4394189;28;655875;-64
2023/10/16 06:37:25;;;;;;;5.80;1.87;;;5.50;99.90;;;;;;4424067;28;657415;-63
2023/10/16 06:40:17;;;;;;;8.83;2.87;;;5.50;99.90;;;;;;4419782;28;655665;-64
2023/10/16 06:43:10;;;;;;;8.20;2.90;;;5.50;99.90;;;;;;4405248;28;656273;-64
2023/10/16 06:46:09;;;;;;;11.00;3.43;;;5.40;99.90;;;;;;4409056;28;655919;-66
2023/10/16 06:48:57;;;;;;;12.80;3.20;;;5.50;99.90;;;;;;4405244;28;657257;-66
2023/10/16 06:51:44;;;;;;;2.97;1.80;;;5.40;99.90;;;;;;4400963;28;657557;-66
2023/10/16 06:54:32;;;;;;;7.57;2.53;;;5.50;99.90;;;;;;4426627;28;655977;-64
2023/10/16 06:57:23;;;;;;;10.70;3.60;;;5.50;99.90;;;;;;4409593;28;655538;-63
2023/10/16 07:00:22;;;;;;;3.03;1.70;;;5.50;99.90;;;;;;4405151;28;657769;-64
2023/10/16 07:03:12;;;;;;;8.30;3.97;;;5.50;99.90;;;;;;4397597;28;656104;-64
2023/10/16 07:05:59;;;;;;;7.90;2.83;;;5.50;99.90;;;;;;4402782;28;656512;-64
2023/10/16 07:08:47;;;;;;;18.40;2.00;;;5.50;99.90;;;;;;4428078;28;656362;-64
2023/10/16 07:11:34;;;;;;;6.17;3.87;;;5.50;99.90;;;;;;4408433;28;656119;-64
2023/10/16 07:14:23;;;;;;;6.10;3.13;;;5.50;99.90;;;;;;4430866;28;655526;-66
2023/10/16 07:17:13;;;;;;;6.03;3.53;;;5.40;99.90;;;;;;4406434;28;656165;-66
2023/10/16 07:20:00;;;;;;;6.87;2.73;;;5.40;99.90;;;;;;4403815;28;656277;-64
2023/10/16 07:22:48;;;;;;;13.18;3.75;;;5.50;99.90;;;;;;4414247;28;656160;-64
2023/10/16 07:25:47;;;;;;;6.87;3.17;;;5.40;99.90;;;;;;4422852;28;657698;-64
2023/10/16 07:28:35;;;;;;;2.87;2.10;;;5.50;99.90;;;;;;4380306;28;656043;-63
2023/10/16 07:31:23;;;;;;;5.40;2.50;;;5.40;99.90;;;;;;4427469;28;655115;-64
2023/10/16 07:34:11;;;;;;;13.03;3.03;;;5.40;99.90;;;;;;4403163;28;656394;-64
2023/10/16 07:37:00;;;;;;;8.67;3.87;;;5.30;99.90;;;;;;4401028;28;656262;-64
2023/10/16 07:39:48;;;;;;;10.83;3.67;;;5.40;99.90;;;;;;4403243;28;656157;-64
2023/10/16 07:42:35;;;;;;;12.57;3.93;;;5.30;99.90;;;;;;4427881;28;657416;-64
2023/10/16 07:45:23;;;;;;;8.07;3.60;;;5.40;99.90;;;;;;4410712;28;656496;-64
2023/10/16 07:48:20;;;;;;;6.43;3.23;;;5.50;99.90;;;;;;4432424;28;656095;-63
2023/10/16 07:51:08;;;;;;;7.28;3.40;;;5.50;99.90;;;;;;4409174;28;656139;-64
2023/10/16 07:53:56;;;;;;;8.10;2.70;;;5.50;99.90;;;;;;4430360;28;656104;-64
2023/10/16 07:56:45;;;;;;;17.60;3.70;;;5.70;99.90;;;;;;4406538;28;655510;-63
2023/10/16 07:59:36;;;;;;;11.30;3.30;;;5.60;99.90;;;;;;4420351;28;657122;-64
2023/10/16 08:02:24;;;;;;;5.30;2.03;;;5.60;99.90;;;;;;4405862;28;656613;-64
2023/10/16 08:05:16;;;;;;;8.13;3.07;;;5.60;99.90;;;;;;4425957;28;655943;-63
2023/10/16 08:08:11;;;;;;;8.77;2.93;;;5.60;99.90;;;;;;4383650;28;655517;-64
2023/10/16 08:10:59;;;;;;;7.07;3.05;;;5.50;99.90;;;;;;4378654;28;656445;-64
2023/10/16 08:13:51;;;;;;;7.10;2.80;;;5.60;99.90;;;;;;4431793;28;655436;-63
2023/10/16 08:16:39;;;;;;;6.87;2.40;;;5.70;99.90;;;;;;4413476;28;655454;-64
2023/10/16 08:19:31;;;;;;;9.67;2.83;;;5.70;99.90;;;;;;4428596;28;656249;-64
2023/10/16 08:22:25;;;;;;;13.50;3.30;;;5.70;99.90;;;;;;4386597;28;656050;-63
2023/10/16 08:25:30;;;;;;;8.23;3.00;;;5.60;99.90;;;;;;4391620;28;657561;-64
2023/10/16 08:28:21;;;;;;;14.93;3.90;;;5.70;99.90;;;;;;4397553;28;656029;-64
2023/10/16 08:31:23;;;;;;;7.60;2.60;;;5.70;99.90;;;;;;4415144;28;657044;-63
2023/10/16 08:34:11;;;;;;;11.13;3.40;;;5.80;99.90;;;;;;4408670;28;655588;-63
2023/10/16 08:36:58;;;;;;;9.43;3.33;;;5.70;99.90;;;;;;4412681;28;657300;-64
2023/10/16 08:39:48;;;;;;;6.57;3.10;;;5.70;99.90;;;;;;4430665;28;657119;-64
2023/10/16 08:42:36;;;;;;;10.30;3.73;;;5.80;99.90;;;;;;4413908;28;656179;-64
2023/10/16 08:45:24;;;;;;;8.67;3.80;;;5.70;99.90;;;;;;4409323;28;656909;-63
2023/10/16 08:48:17;;;;;;;12.07;3.60;;;5.80;99.90;;;;;;4433415;28;655043;-64
2023/10/16 08:51:08;;;;;;;4.33;2.80;;;5.80;99.90;;;;;;4406119;28;657054;-63
2023/10/16 08:54:01;;;;;;;7.40;2.27;;;5.90;99.90;;;;;;4411924;28;655788;-64
2023/10/16 08:56:49;;;;;;;10.80;3.43;;;5.90;99.90;;;;;;4390562;28;655574;-64
2023/10/16 08:59:37;;;;;;;9.93;3.65;;;5.60;99.90;;;;;;4432192;28;656736;-63
2023/10/16 09:02:25;;;;;;;9.77;3.77;;;5.70;99.90;;;;;;4410282;28;655604;-64
2023/10/16 09:05:12;;;;;;;8.77;3.77;;;5.60;99.90;;;;;;4430493;28;655254;-63
2023/10/16 09:07:59;;;;;;;14.87;3.90;;;5.80;99.90;;;;;;4408353;28;656636;-64
2023/10/16 09:10:48;;;;;;;9.40;3.30;;;5.80;99.90;;;;;;4428269;28;656831;-64
2023/10/16 09:13:36;;;;;;;10.97;3.77;;;6.00;99.90;;;;;;4413924;28;655408;-63
2023/10/16 09:16:30;;;;;;;7.03;3.10;;;6.10;99.90;;;;;;4407311;28;656498;-64
2023/10/16 09:19:18;;;;;;;9.83;3.80;;;6.10;99.90;;;;;;4412968;28;655942;-64
2023/10/16 09:22:08;;;;;;;9.70;3.63;;;6.10;99.90;;;;;;4429041;28;656843;-64
2023/10/16 09:24:55;;;;;;;10.83;3.50;;;6.30;99.90;;;;;;4404773;28;656459;-64
2023/10/16 09:27:43;;;;;;;12.97;3.67;;;6.10;99.90;;;;;;4406877;28;657735;-64
2023/10/16 09:30:33;;;;;;;4.90;2.03;;;6.20;99.90;;;;;;4424526;28;657486;-64
2023/10/16 09:33:20;;;;;;;6.80;2.63;;;6.10;99.90;;;;;;4404893;28;656751;-63
2023/10/16 09:36:17;;;;;;;10.25;2.33;;;6.20;99.90;;;;;;4404269;28;655877;-64
2023/10/16 09:39:17;;;;;;;12.10;3.77;;;6.20;99.90;;;;;;4410499;28;657128;-63
2023/10/16 09:42:11;;;;;;;6.53;3.53;;;6.10;99.90;;;;;;4385472;28;657317;-64
2023/10/16 09:45:06;;;;;;;6.57;2.17;;;6.10;99.90;;;;;;4383268;28;656958;-63
2023/10/16 09:47:55;;;;;;;4.47;2.30;;;6.00;99.90;;;;;;4384066;28;656742;-63
2023/10/16 09:50:43;;;;;;;10.53;3.37;;;6.10;99.90;;;;;;4414597;28;656629;-64
2023/10/16 09:53:31;;;;;;;10.73;3.70;;;5.90;99.90;;;;;;4430177;28;657688;-63
2023/10/16 09:56:18;;;;;;;12.00;4.23;;;6.00;99.90;;;;;;4404785;28;656387;-63
2023/10/16 09:59:08;;;;;;;8.23;3.73;;;5.80;99.90;;;;;;4424773;28;657377;-63
2023/10/16 10:02:05;;;;;;;12.83;4.30;;;5.70;99.90;;;;;;4398760;28;655369;-63
2023/10/16 10:05:03;;;;;;;14.13;3.67;;;5.70;99.90;;;;;;4386562;28;657272;-64
2023/10/16 10:07:53;;;;;;;12.23;3.97;;;5.80;99.90;;;;;;4399613;28;657119;-64
2023/10/16 10:13:55;;;;;;;8.30;3.40;;;6.00;99.90;;;;;;4382700;28;657149;-64
2023/10/16 10:16:45;;;;;;;12.87;3.63;;;6.10;99.90;;;;;;4384763;28;655883;-64
2023/10/16 10:19:35;;;;;;;7.70;3.03;;;6.40;99.90;;;;;;4423454;28;656654;-63
2023/10/16 10:22:27;;;;;;;9.17;3.93;;;6.50;99.90;;;;;;4407614;28;656924;-64
2023/10/16 10:25:21;;;;;;;11.00;3.80;;;6.50;99.90;;;;;;4399537;28;656694;-63
2023/10/16 10:28:16;;;;;;;7.33;2.47;;;6.50;99.90;;;;;;4380253;28;657765;-63
2023/10/16 10:31:04;;;;;;;7.73;2.03;;;6.40;99.90;;;;;;4388131;28;656586;-63
2023/10/16 10:33:52;;;;;;;9.73;3.20;;;6.40;99.90;;;;;;4425105;28;655907;-63
2023/10/16 10:36:40;;;;;;;8.90;2.60;;;6.50;99.90;;;;;;4404249;28;657461;-64
2023/10/16 10:39:44;;;;;;;7.73;3.03;;;6.50;99.90;;;;;;4425682;28;655998;-65
2023/10/16 10:42:38;;;;;;;9.37;3.33;;;6.50;99.90;;;;;;4405167;28;655952;-63
2023/10/16 10:45:33;;;;;;;9.03;3.43;;;6.60;99.90;;;;;;4407191;28;656125;-63
2023/10/16 10:48:24;;;;;;;8.40;3.70;;;6.50;99.90;;;;;;4410696;28;655555;-63
2023/10/16 10:51:14;;;;;;;4.53;1.83;;;6.40;99.90;;;;;;4410232;28;655644;-63
2023/10/16 10:54:03;;;;;;;12.43;3.13;;;6.60;99.90;;;;;;4404943;28;655986;-64
2023/10/16 10:56:53;;;;;;;9.48;3.72;;;6.80;99.90;;;;;;4404032;28;657443;-63
2023/10/16 10:59:41;;;;;;;10.60;3.17;;;6.70;99.90;;;;;;4402212;28;656415;-63
2023/10/16 11:05:31;;;;;;;7.73;3.00;;;7.00;99.90;;;;;;4382064;28;657500;-63
2023/10/16 11:08:25;;;;;;;14.27;3.40;;;7.00;99.90;;;;;;4409667;28;656944;-64
2023/10/16 11:11:13;;;;;;;10.97;3.57;;;7.10;99.90;;;;;;4385443;28;656582;-63
2023/10/16 11:14:04;;;;;;;10.17;3.50;;;7.20;99.90;;;;;;4427889;28;657816;-63
2023/10/16 11:16:52;;;;;;;4.30;1.60;;;7.40;99.90;;;;;;4399823;28;657121;-63
2023/10/16 11:19:47;;;;;;;10.33;3.13;;;7.50;99.90;;;;;;4404234;28;657087;-64
2023/10/16 11:22:34;;;;;;;8.40;2.83;;;7.50;99.90;;;;;;4409500;28;656367;-63
2023/10/16 11:25:21;;;;;;;7.33;2.77;;;7.50;99.90;;;;;;4433302;28;655023;-63
2023/10/16 11:28:09;;;;;;;5.97;2.47;;;7.50;99.90;;;;;;4405335;28;655099;-64
2023/10/16 11:30:58;;;;;;;7.53;3.33;;;7.40;99.90;;;;;;4426588;28;655435;-64
2023/10/16 11:33:47;;;;;;;4.30;1.60;;;7.20;99.90;;;;;;4403493;28;656404;-63
2023/10/16 11:36:35;;;;;;;6.13;2.43;;;7.20;99.90;;;;;;4405581;28;655974;-63
2023/10/16 11:39:26;;;;;;;11.27;3.40;;;7.20;99.90;;;;;;4422618;28;655148;-63
2023/10/16 11:42:14;;;;;;;11.80;3.53;;;7.00;99.90;;;;;;4402953;28;656656;-63
2023/10/16 11:45:08;;;;;;;12.73;3.93;;;6.80;99.90;;;;;;4425259;28;656587;-64
2023/10/16 11:48:19;;;;;;;12.70;3.60;;;6.80;99.90;;;;;;4406461;28;657194;-64
2023/10/16 11:51:10;;;;;;;9.13;3.80;;;6.70;99.90;;;;;;4401194;28;657139;-64
2023/10/16 11:54:02;;;;;;;12.93;3.90;;;6.70;99.90;;;;;;4388451;28;655801;-65
2023/10/16 11:56:52;;;;;;;12.67;3.77;;;6.80;99.90;;;;;;4402116;28;658561;-64
2023/10/16 11:59:40;;;;;;;12.27;3.80;;;6.70;99.90;;;;;;4403634;28;657888;-64
2023/10/16 12:02:29;;;;;;;15.50;3.78;;;6.90;99.90;;;;;;4409396;28;656389;-64
2023/10/16 12:05:17;;;;;;;14.30;5.10;;;7.00;99.90;;;;;;4428666;28;656740;-64
2023/10/16 12:08:07;;;;;;;8.77;3.90;;;7.20;99.90;;;;;;4401120;28;657473;-64
2023/10/16 12:10:55;;;;;;;9.97;4.17;;;7.20;99.90;;;;;;4406650;28;655981;-64
2023/10/16 12:13:43;;;;;;;14.57;4.50;;;7.20;99.90;;;;;;4422872;28;655441;-64
2023/10/16 12:16:30;;;;;;;10.03;3.47;;;7.40;99.90;;;;;;4420699;28;657316;-64
2023/10/16 12:19:18;;;;;;;6.80;3.63;;;7.50;99.90;;;;;;4417225;28;656591;-63
2023/10/16 12:22:08;;;;;;;4.37;1.80;;;7.70;99.90;;;;;;4432121;28;656518;-64
2023/10/16 12:24:56;;;;;;;11.30;4.13;;;7.60;99.90;;;;;;4400275;28;656946;-64
2023/10/16 12:27:44;;;;;;;9.70;3.97;;;7.50;99.90;;;;;;4407601;28;656518;-64
2023/10/16 12:30:33;;;;;;;6.83;2.90;;;7.60;99.90;;;;;;4409999;28;656112;-64
2023/10/16 12:33:20;;;;;;;4.20;2.40;;;7.60;99.90;;;;;;4433601;28;656668;-63
2023/10/16 12:36:10;;;;;;;10.90;3.35;;;7.50;99.90;;;;;;4406735;28;656078;-64
2023/10/16 12:38:59;;;;;;;12.17;3.13;;;7.40;99.90;;;;;;4406961;28;656211;-64
2023/10/16 12:41:46;;;;;;;7.23;3.37;;;7.30;99.90;;;;;;4431219;28;656230;-63
2023/10/16 12:44:34;;;;;;;10.00;2.90;;;7.40;99.90;;;;;;4408435;28;656001;-63
2023/10/16 12:47:21;;;;;;;10.47;3.53;;;7.30;99.90;;;;;;4426286;28;657180;-63
2023/10/16 12:50:11;;;;;;;12.23;3.47;;;7.20;99.90;;;;;;4409496;28;656313;-63
2023/10/16 12:53:00;;;;;;;10.60;3.80;;;7.10;99.90;;;;;;4405241;28;656175;-64
2023/10/16 12:55:51;;;;;;;14.50;4.03;;;7.30;99.90;;;;;;4412796;28;656885;-64
2023/10/16 12:58:38;;;;;;;13.57;4.23;;;7.10;99.90;;;;;;4405209;28;656713;-63
2023/10/16 13:01:25;;;;;;;10.00;3.43;;;7.10;99.90;;;;;;4431017;28;656739;-65
2023/10/16 13:04:14;;;;;;;8.57;2.97;;;7.00;99.90;;;;;;4407568;28;657619;-62
2023/10/16 13:07:02;;;;;;;7.87;2.33;;;6.90;99.90;;;;;;4429692;28;656002;-63
2023/10/16 13:09:52;;;;;;;7.80;2.40;;;6.00;99.90;;;;;;4416678;28;655802;-63
2023/10/16 13:12:41;;;;;;;9.30;2.73;;;5.60;99.90;;;;;;4412390;28;656520;-63
2023/10/16 13:15:29;;;;;;;7.43;2.90;;;5.60;99.90;;;;;;4415736;28;655629;-63
2023/10/16 13:18:18;;;;;;;5.47;2.57;;;5.70;99.90;;;;;;4430281;28;656930;-63
2023/10/16 13:21:07;;;;;;;9.17;3.50;;;5.80;99.90;;;;;;4414413;28;656958;-63
2023/10/16 13:23:54;;;;;;;10.57;3.37;;;5.90;99.90;;;;;;4415002;28;655605;-64
2023/10/16 13:26:41;;;;;;;15.00;3.57;;;6.20;99.90;;;;;;4429780;28;657398;-63
2023/10/16 13:29:30;;;;;;;9.97;3.43;;;6.10;99.90;;;;;;4417000;28;656854;-63
2023/10/16 13:32:18;;;;;;;11.52;3.70;;;6.30;99.90;;;;;;4417201;28;655549;-64
2023/10/16 13:35:12;;;;;;;11.73;3.50;;;6.60;99.90;;;;;;4429841;28;657494;-64
2023/10/16 13:38:04;;;;;;;14.57;4.20;;;6.50;99.90;;;;;;4415649;28;657169;-64
2023/10/16 13:40:51;;;;;;;16.33;4.40;;;6.70;99.90;;;;;;4408468;28;657454;-64
2023/10/16 13:43:39;;;;;;;12.80;5.00;;;6.90;99.90;;;;;;4410818;28;657230;-64
2023/10/16 13:46:29;;;;;;;16.30;5.50;;;7.30;99.90;;;;;;4438778;28;655749;-63
2023/10/16 13:49:18;;;;;;;15.77;5.43;;;7.70;99.90;;;;;;4407823;28;656816;-64
2023/10/16 13:52:07;;;;;;;16.13;6.00;;;8.30;99.90;;;;;;4406264;28;657493;-64
2023/10/16 13:54:55;;;;;;;13.55;5.68;;;8.70;99.90;;;;;;4410697;28;657884;-64
2023/10/16 13:57:43;;;;;;;14.00;5.60;;;8.60;99.90;;;;;;4422364;28;656564;-64
2023/10/16 14:00:31;;;;;;;14.23;4.90;;;8.70;99.90;;;;;;4436537;28;657481;-64
2023/10/16 14:03:21;;;;;;;17.70;6.60;;;8.50;99.90;;;;;;4413079;28;656987;-64
2023/10/16 14:06:12;;;;;;;17.83;6.47;;;8.40;99.90;;;;;;4411770;28;656601;-64
2023/10/16 14:09:10;;;;;;;15.57;6.20;;;8.30;99.90;;;;;;4407026;28;657455;-64
2023/10/16 14:11:58;;;;;;;16.50;6.93;;;8.40;99.90;;;;;;4386099;28;656826;-65
2023/10/16 14:14:51;;;;;;;17.02;7.68;;;8.30;99.90;;;;;;4429153;28;657611;-64
2023/10/16 14:17:43;;;;;;;30.33;13.83;;;8.40;99.90;;;;;;4389251;28;656940;-64
2023/10/16 14:20:37;;;;;;;18.00;10.27;;;8.40;99.90;;;;;;4405438;28;658494;-64
2023/10/16 14:23:28;;;;;;;16.40;8.40;;;8.20;99.90;;;;;;4381418;28;658131;-64
2023/10/16 14:26:21;;;;;;;12.20;6.30;;;8.00;99.90;;;;;;4402653;28;657079;-64
2023/10/16 14:29:10;;;;;;;10.53;5.53;;;7.50;99.90;;;;;;4406081;28;656866;-64
2023/10/16 14:31:58;;;;;;;11.10;5.30;;;7.40;99.90;;;;;;4427550;28;656946;-64
2023/10/16 14:34:45;;;;;;;12.90;4.97;;;7.50;99.90;;;;;;4426871;28;658422;-65
2023/10/16 14:37:34;;;;;;;12.27;4.90;;;7.30;99.90;;;;;;4421546;28;657426;-65
2023/10/16 14:40:25;;;;;;;9.57;4.97;;;7.20;99.90;;;;;;4424883;28;657248;-63
2023/10/16 14:43:15;;;;;;;11.70;4.87;;;7.10;99.90;;;;;;4396395;28;655272;-64
2023/10/16 14:46:03;;;;;;;10.63;4.67;;;7.00;99.90;;;;;;4409909;28;657053;-64
2023/10/16 14:48:53;;;;;;;11.33;4.87;;;7.00;99.90;;;;;;4431775;28;656929;-63
2023/10/16 14:51:40;;;;;;;17.33;4.43;;;6.90;99.90;;;;;;4405234;28;657023;-63
2023/10/16 14:54:29;;;;;;;9.75;4.32;;;6.90;99.90;;;;;;4409215;28;657805;-64
2023/10/16 14:57:20;;;;;;;11.13;4.40;;;6.90;99.90;;;;;;4432675;28;655212;-63
2023/10/16 15:00:12;;;;;;;9.00;4.50;;;6.90;99.90;;;;;;4409489;28;656287;-64
2023/10/16 15:03:00;;;;;;;12.23;4.37;;;6.80;99.90;;;;;;4404580;28;656708;-63
2023/10/16 15:05:49;;;;;;;10.50;4.07;;;6.70;99.90;;;;;;4407523;28;656797;-63
2023/10/16 15:08:37;;;;;;;10.33;4.43;;;6.70;99.90;;;;;;4425612;28;656824;-63
2023/10/16 15:11:28;;;;;;;9.47;4.43;;;6.60;99.90;;;;;;4407614;28;656926;-63
2023/10/16 15:14:15;;;;;;;9.57;4.03;;;6.60;99.90;;;;;;4406213;28;656584;-63
2023/10/16 15:17:03;;;;;;;13.80;5.38;;;6.60;99.90;;;;;;4412533;28;655419;-65
2023/10/16 15:19:50;;;;;;;13.90;6.13;;;6.60;99.90;;;;;;4429248;28;657449;-63
2023/10/16 15:22:42;;;;;;;16.15;5.07;;;6.70;99.90;;;;;;4404021;28;656606;-64
2023/10/16 15:25:29;;;;;;;12.83;5.47;;;6.40;99.90;;;;;;4410549;28;656779;-63
2023/10/16 15:28:18;;;;;;;13.77;5.80;;;6.40;99.90;;;;;;4431117;28;656271;-63
2023/10/16 15:31:05;;;;;;;12.70;5.43;;;6.40;99.90;;;;;;4406974;28;657093;-63
2023/10/16 15:33:53;;;;;;;13.97;5.80;;;6.30;99.90;;;;;;4422782;28;656294;-64
2023/10/16 15:36:40;;;;;;;15.20;5.80;;;6.30;99.90;;;;;;4426245;28;657204;-63
2023/10/16 15:39:28;;;;;;;17.90;6.03;;;6.30;99.90;;;;;;4410782;28;656703;-63
2023/10/16 15:42:15;;;;;;;15.47;5.63;;;6.30;99.90;;;;;;4430410;28;657636;-63
2023/10/16 15:45:04;;;;;;;11.00;4.90;;;6.30;99.90;;;;;;4409025;28;656662;-63
2023/10/16 15:47:52;;;;;;;15.40;5.40;;;6.30;99.90;;;;;;4425113;28;656780;-63
2023/10/16 15:50:40;;;;;;;15.53;5.80;;;6.30;99.90;;;;;;4402526;28;658047;-64
2023/10/16 15:53:28;;;;;;;16.03;5.50;;;6.20;99.90;;;;;;4418770;28;657030;-64
2023/10/16 15:56:16;;;;;;;12.17;5.37;;;6.20;99.90;;;;;;4427461;28;657139;-63
2023/10/16 15:59:03;;;;;;;16.80;5.80;;;6.20;99.90;;;;;;4405554;28;656751;-64
2023/10/16 16:01:53;;;;;;;17.15;5.78;;;6.10;99.90;;;;;;4424434;28;656291;-64